createdAt,value
2022-10-05T00:00:00.338Z,19.23
2022-10-05T00:00:10.335Z,19.22
2022-10-05T00:00:20.340Z,19.22
2022-10-05T00:00:30.338Z,19.22
2022-10-05T00:00:40.339Z,19.22
2022-10-05T00:00:50.344Z,19.23
2022-10-05T00:01:00.358Z,19.23
2022-10-05T00:01:10.339Z,19.21
2022-10-05T00:01:20.384Z,19.22
2022-10-05T00:01:30.380Z,19.23
2022-10-05T00:01:40.390Z,19.22
2022-10-05T00:01:50.381Z,19.24
2022-10-05T00:02:00.387Z,19.23
2022-10-05T00:02:10.367Z,19.24
2022-10-05T00:02:20.343Z,19.23
2022-10-05T00:02:30.330Z,19.23
2022-10-05T00:02:40.343Z,19.22
2022-10-05T00:02:50.342Z,19.24
2022-10-05T00:03:00.349Z,19.21
2022-10-05T00:03:10.351Z,19.23
2022-10-05T00:03:20.344Z,19.24
2022-10-05T00:03:30.345Z,19.23
2022-10-05T00:03:40.348Z,19.23
2022-10-05T00:03:50.376Z,19.23
2022-10-05T00:04:00.436Z,19.23
2022-10-05T00:04:10.399Z,19.24
2022-10-05T00:04:20.354Z,19.23
2022-10-05T00:04:30.357Z,19.22
2022-10-05T00:04:40.384Z,19.23
2022-10-05T00:04:50.393Z,19.22
2022-10-05T00:05:00.392Z,19.22
2022-10-05T00:05:10.396Z,19.23
2022-10-05T00:05:20.469Z,19.22
2022-10-05T00:05:30.400Z,19.24
2022-10-05T00:05:40.358Z,19.23
2022-10-05T00:05:50.353Z,19.23
2022-10-05T00:06:00.361Z,19.22
2022-10-05T00:06:10.368Z,19.23
2022-10-05T00:06:20.376Z,19.23
2022-10-05T00:06:30.370Z,19.23
2022-10-05T00:06:40.342Z,19.23
2022-10-05T00:06:50.358Z,19.23
2022-10-05T00:07:00.360Z,19.23
2022-10-05T00:07:10.363Z,19.22
2022-10-05T00:07:20.361Z,19.22
2022-10-05T00:07:30.368Z,19.24
2022-10-05T00:07:40.363Z,19.22
2022-10-05T00:07:50.368Z,19.21
2022-10-05T00:08:00.369Z,19.24
2022-10-05T00:08:10.364Z,19.22
2022-10-05T00:08:20.366Z,19.22
2022-10-05T00:08:30.366Z,19.23
2022-10-05T00:08:40.370Z,19.22
2022-10-05T00:08:50.374Z,19.23
2022-10-05T00:09:00.372Z,19.23
2022-10-05T00:09:10.374Z,19.22
2022-10-05T00:09:20.376Z,19.22
2022-10-05T00:09:30.373Z,19.22
2022-10-05T00:09:40.373Z,19.22
2022-10-05T00:09:50.361Z,19.22
2022-10-05T00:10:00.364Z,19.22
2022-10-05T00:10:10.376Z,19.23
2022-10-05T00:10:20.375Z,19.23
2022-10-05T00:10:30.375Z,19.25
2022-10-05T00:10:40.383Z,19.23
2022-10-05T00:10:50.379Z,19.22
2022-10-05T00:11:00.383Z,19.22
2022-10-05T00:11:10.378Z,19.23
2022-10-05T00:11:20.379Z,19.21
2022-10-05T00:11:30.381Z,19.23
2022-10-05T00:11:40.382Z,19.23
2022-10-05T00:11:50.380Z,19.22
2022-10-05T00:12:00.380Z,19.23
2022-10-05T00:12:10.385Z,19.22
2022-10-05T00:12:20.389Z,19.22
2022-10-05T00:12:30.386Z,19.23
2022-10-05T00:12:40.388Z,19.24
2022-10-05T00:12:50.397Z,19.24
2022-10-05T00:13:00.387Z,19.24
2022-10-05T00:13:10.389Z,19.24
2022-10-05T00:13:20.393Z,19.23
2022-10-05T00:13:30.389Z,19.23
2022-10-05T00:13:40.390Z,19.23
2022-10-05T00:13:50.395Z,19.23
2022-10-05T00:14:00.395Z,19.23
2022-10-05T00:14:10.394Z,19.23
2022-10-05T00:14:20.397Z,19.22
2022-10-05T00:14:30.396Z,19.21
2022-10-05T00:14:40.393Z,19.21
2022-10-05T00:14:50.397Z,19.23
2022-10-05T00:15:00.408Z,19.22
2022-10-05T00:15:10.388Z,19.21
2022-10-05T00:15:20.405Z,19.22
2022-10-05T00:15:30.403Z,19.19
2022-10-05T00:15:40.406Z,19.21
2022-10-05T00:15:50.406Z,19.21
2022-10-05T00:16:00.403Z,19.19
2022-10-05T00:16:10.499Z,19.20
2022-10-05T00:16:20.475Z,19.19
2022-10-05T00:16:30.460Z,19.20
2022-10-05T00:16:40.445Z,19.19
2022-10-05T00:16:50.811Z,19.17
2022-10-05T00:17:00.447Z,19.19
2022-10-05T00:17:10.406Z,19.19
2022-10-05T00:17:20.410Z,19.20
2022-10-05T00:17:30.409Z,19.20
2022-10-05T00:17:40.408Z,19.20
2022-10-05T00:17:50.407Z,19.19
2022-10-05T00:18:00.410Z,19.19
2022-10-05T00:18:10.412Z,19.19
2022-10-05T00:18:20.420Z,19.21
2022-10-05T00:18:30.412Z,19.21
2022-10-05T00:18:40.416Z,19.20
2022-10-05T00:18:50.419Z,19.19
2022-10-05T00:19:00.416Z,19.19
2022-10-05T00:19:10.411Z,19.18
2022-10-05T00:19:20.400Z,19.20
2022-10-05T00:19:30.416Z,19.19
2022-10-05T00:19:40.416Z,19.21
2022-10-05T00:19:50.420Z,19.22
2022-10-05T00:20:00.422Z,19.22
2022-10-05T00:20:10.419Z,19.21
2022-10-05T00:20:20.422Z,19.21
2022-10-05T00:20:30.424Z,19.20
2022-10-05T00:20:40.443Z,19.21
2022-10-05T00:20:50.422Z,19.19
2022-10-05T00:21:00.423Z,19.21
2022-10-05T00:21:10.424Z,19.20
2022-10-05T00:21:20.425Z,19.20
2022-10-05T00:21:30.425Z,19.21
2022-10-05T00:21:40.429Z,19.22
2022-10-05T00:21:50.426Z,19.22
2022-10-05T00:22:00.430Z,19.22
2022-10-05T00:22:10.426Z,19.22
2022-10-05T00:22:20.429Z,19.21
2022-10-05T00:22:30.429Z,19.20
2022-10-05T00:22:40.436Z,19.22
2022-10-05T00:22:50.434Z,19.21
2022-10-05T00:23:00.430Z,19.19
2022-10-05T00:23:10.432Z,19.21
2022-10-05T00:23:20.434Z,19.22
2022-10-05T00:23:30.436Z,19.22
2022-10-05T00:23:40.433Z,19.23
2022-10-05T00:23:50.438Z,19.22
2022-10-05T00:24:00.438Z,19.22
2022-10-05T00:24:10.434Z,19.21
2022-10-05T00:24:20.443Z,19.21
2022-10-05T00:24:30.436Z,19.22
2022-10-05T00:24:40.438Z,19.21
2022-10-05T00:24:50.443Z,19.22
2022-10-05T00:25:00.440Z,19.21
2022-10-05T00:25:10.441Z,19.23
2022-10-05T00:25:20.449Z,19.20
2022-10-05T00:25:30.442Z,19.21
2022-10-05T00:25:40.480Z,19.20
2022-10-05T00:25:50.448Z,19.21
2022-10-05T00:26:00.453Z,19.21
2022-10-05T00:26:10.447Z,19.20
2022-10-05T00:26:20.451Z,19.21
2022-10-05T00:26:30.449Z,19.20
2022-10-05T00:26:40.450Z,19.19
2022-10-05T00:26:54.101Z,19.20
2022-10-05T00:27:01.452Z,19.16
2022-10-05T00:27:10.453Z,19.17
2022-10-05T00:27:20.455Z,19.16
2022-10-05T00:27:30.457Z,19.18
2022-10-05T00:27:40.456Z,19.17
2022-10-05T00:27:50.454Z,19.18
2022-10-05T00:28:00.512Z,19.18
2022-10-05T00:28:10.478Z,19.19
2022-10-05T00:28:20.530Z,19.18
2022-10-05T00:28:30.659Z,19.17
2022-10-05T00:28:40.462Z,19.17
2022-10-05T00:28:50.464Z,19.19
2022-10-05T00:29:00.465Z,19.18
2022-10-05T00:29:10.464Z,19.20
2022-10-05T00:29:20.463Z,19.19
2022-10-05T00:29:30.469Z,19.19
2022-10-05T00:29:40.466Z,19.20
2022-10-05T00:29:50.470Z,19.19
2022-10-05T00:30:00.481Z,19.19
2022-10-05T00:30:10.471Z,19.21
2022-10-05T00:30:20.469Z,19.20
2022-10-05T00:30:30.470Z,19.20
2022-10-05T00:30:40.481Z,19.19
2022-10-05T00:30:50.472Z,19.20
2022-10-05T00:31:00.475Z,19.20
2022-10-05T00:31:10.475Z,19.21
2022-10-05T00:31:20.496Z,19.22
2022-10-05T00:31:30.560Z,19.21
2022-10-05T00:31:40.526Z,19.21
2022-10-05T00:31:50.604Z,19.21
2022-10-05T00:32:00.526Z,19.20
2022-10-05T00:32:10.600Z,19.21
2022-10-05T00:32:20.480Z,19.21
2022-10-05T00:32:30.481Z,19.20
2022-10-05T00:32:40.482Z,19.21
2022-10-05T00:32:50.483Z,19.21
2022-10-05T00:33:00.486Z,19.21
2022-10-05T00:33:10.464Z,19.21
2022-10-05T00:33:20.483Z,19.22
2022-10-05T00:33:30.485Z,19.20
2022-10-05T00:33:40.481Z,19.23
2022-10-05T00:33:50.483Z,19.20
2022-10-05T00:34:00.483Z,19.21
2022-10-05T00:34:10.483Z,19.22
2022-10-05T00:34:20.488Z,19.23
2022-10-05T00:34:30.486Z,19.21
2022-10-05T00:34:40.488Z,19.21
2022-10-05T00:34:50.471Z,19.22
2022-10-05T00:35:00.485Z,19.22
2022-10-05T00:35:10.493Z,19.21
2022-10-05T00:35:20.491Z,19.23
2022-10-05T00:35:30.487Z,19.22
2022-10-05T00:35:40.491Z,19.22
2022-10-05T00:35:50.488Z,19.23
2022-10-05T00:36:00.493Z,19.23
2022-10-05T00:36:10.487Z,19.22
2022-10-05T00:36:20.491Z,19.21
2022-10-05T00:36:30.498Z,19.23
2022-10-05T00:36:40.494Z,19.22
2022-10-05T00:36:50.491Z,19.21
2022-10-05T00:37:00.491Z,19.22
2022-10-05T00:37:10.493Z,19.23
2022-10-05T00:37:20.497Z,19.22
2022-10-05T00:37:30.493Z,19.23
2022-10-05T00:37:40.494Z,19.24
2022-10-05T00:37:50.502Z,19.23
2022-10-05T00:38:00.481Z,19.21
2022-10-05T00:38:10.497Z,19.23
2022-10-05T00:38:20.502Z,19.23
2022-10-05T00:38:30.496Z,19.22
2022-10-05T00:38:40.501Z,19.21
2022-10-05T00:38:50.498Z,19.22
2022-10-05T00:39:00.500Z,19.23
2022-10-05T00:39:10.504Z,19.23
2022-10-05T00:39:20.502Z,19.22
2022-10-05T00:39:30.501Z,19.22
2022-10-05T00:39:40.503Z,19.22
2022-10-05T00:39:50.501Z,19.22
2022-10-05T00:40:00.502Z,19.23
2022-10-05T00:40:10.505Z,19.23
2022-10-05T00:40:20.506Z,19.23
2022-10-05T00:40:30.507Z,19.24
2022-10-05T00:40:40.509Z,19.23
2022-10-05T00:40:50.510Z,19.23
2022-10-05T00:41:00.506Z,19.22
2022-10-05T00:41:10.511Z,19.23
2022-10-05T00:41:20.513Z,19.24
2022-10-05T00:41:30.515Z,19.24
2022-10-05T00:41:40.515Z,19.23
2022-10-05T00:41:50.510Z,19.23
2022-10-05T00:42:00.513Z,19.22
2022-10-05T00:42:10.516Z,19.24
2022-10-05T00:42:20.517Z,19.23
2022-10-05T00:42:30.520Z,19.23
2022-10-05T00:42:40.521Z,19.23
2022-10-05T00:42:50.519Z,19.24
2022-10-05T00:43:00.520Z,19.24
2022-10-05T00:43:10.520Z,19.23
2022-10-05T00:43:20.526Z,19.22
2022-10-05T00:43:30.519Z,19.22
2022-10-05T00:43:40.520Z,19.23
2022-10-05T00:43:50.525Z,19.23
2022-10-05T00:44:00.521Z,19.24
2022-10-05T00:44:10.524Z,19.24
2022-10-05T00:44:20.522Z,19.24
2022-10-05T00:44:30.527Z,19.23
2022-10-05T00:44:40.524Z,19.23
2022-10-05T00:44:50.530Z,19.23
2022-10-05T00:45:00.513Z,19.23
2022-10-05T00:45:10.526Z,19.24
2022-10-05T00:45:20.526Z,19.24
2022-10-05T00:45:30.587Z,19.24
2022-10-05T00:45:40.651Z,19.24
2022-10-05T00:45:50.577Z,19.23
2022-10-05T00:46:00.591Z,19.24
2022-10-05T00:46:10.621Z,19.24
2022-10-05T00:46:20.586Z,19.23
2022-10-05T00:46:30.532Z,19.23
2022-10-05T00:46:40.531Z,19.22
2022-10-05T00:46:50.533Z,19.23
2022-10-05T00:47:00.534Z,19.23
2022-10-05T00:47:10.542Z,19.24
2022-10-05T00:47:20.536Z,19.25
2022-10-05T00:47:30.540Z,19.24
2022-10-05T00:47:40.535Z,19.23
2022-10-05T00:47:50.528Z,19.23
2022-10-05T00:48:00.538Z,19.23
2022-10-05T00:48:10.538Z,19.25
2022-10-05T00:48:20.541Z,19.25
2022-10-05T00:48:30.539Z,19.24
2022-10-05T00:48:40.546Z,19.24
2022-10-05T00:48:50.580Z,19.23
2022-10-05T00:49:00.541Z,19.23
2022-10-05T00:49:10.541Z,19.23
2022-10-05T00:49:20.543Z,19.23
2022-10-05T00:49:30.540Z,19.24
2022-10-05T00:49:40.543Z,19.24
2022-10-05T00:49:50.549Z,19.23
2022-10-05T00:50:00.532Z,19.24
2022-10-05T00:50:10.548Z,19.23
2022-10-05T00:50:20.547Z,19.23
2022-10-05T00:50:30.549Z,19.24
2022-10-05T00:50:40.549Z,19.24
2022-10-05T00:50:50.532Z,19.23
2022-10-05T00:51:00.550Z,19.25
2022-10-05T00:51:10.549Z,19.25
2022-10-05T00:51:20.550Z,19.24
2022-10-05T00:51:30.554Z,19.24
2022-10-05T00:51:40.550Z,19.24
2022-10-05T00:51:50.549Z,19.24
2022-10-05T00:52:00.552Z,19.23
2022-10-05T00:52:10.555Z,19.22
2022-10-05T00:52:20.554Z,19.24
2022-10-05T00:52:30.553Z,19.24
2022-10-05T00:52:40.553Z,19.25
2022-10-05T00:52:50.561Z,19.24
2022-10-05T00:53:00.557Z,19.23
2022-10-05T00:53:10.556Z,19.25
2022-10-05T00:53:20.548Z,19.24
2022-10-05T00:53:30.558Z,19.24
2022-10-05T00:53:40.560Z,19.25
2022-10-05T00:53:50.560Z,19.26
2022-10-05T00:54:00.561Z,19.26
2022-10-05T00:54:13.597Z,19.26
2022-10-05T00:54:21.564Z,19.23
2022-10-05T00:54:30.561Z,19.23
2022-10-05T00:54:40.565Z,19.25
2022-10-05T00:54:50.565Z,19.24
2022-10-05T00:55:00.550Z,19.25
2022-10-05T00:55:10.563Z,19.23
2022-10-05T00:55:20.566Z,19.25
2022-10-05T00:55:30.551Z,19.25
2022-10-05T00:55:40.567Z,19.23
2022-10-05T00:55:50.567Z,19.25
2022-10-05T00:56:00.572Z,19.26
2022-10-05T00:56:10.567Z,19.25
2022-10-05T00:56:20.567Z,19.24
2022-10-05T00:56:30.569Z,19.25
2022-10-05T00:56:40.568Z,19.24
2022-10-05T00:56:50.573Z,19.25
2022-10-05T00:57:00.572Z,19.24
2022-10-05T00:57:10.569Z,19.26
2022-10-05T00:57:20.571Z,19.24
2022-10-05T00:57:30.571Z,19.26
2022-10-05T00:57:40.575Z,19.25
2022-10-05T00:57:50.574Z,19.25
2022-10-05T00:58:00.575Z,19.25
2022-10-05T00:58:10.575Z,19.25
2022-10-05T00:58:20.580Z,19.24
2022-10-05T00:58:30.574Z,19.25
2022-10-05T00:58:40.575Z,19.24
2022-10-05T00:58:50.577Z,19.24
2022-10-05T00:59:00.577Z,19.26
2022-10-05T00:59:10.578Z,19.26
2022-10-05T00:59:20.563Z,19.25
2022-10-05T00:59:30.581Z,19.25
2022-10-05T00:59:40.579Z,19.24
2022-10-05T00:59:50.582Z,19.25
2022-10-05T01:00:00.580Z,19.25
2022-10-05T01:00:10.583Z,19.25
2022-10-05T01:00:20.590Z,19.25
2022-10-05T01:00:30.585Z,19.24
2022-10-05T01:00:40.587Z,19.24
2022-10-05T01:00:50.609Z,19.24
2022-10-05T01:01:00.685Z,19.25
2022-10-05T01:01:10.655Z,19.24
2022-10-05T01:01:20.636Z,19.24
2022-10-05T01:01:30.639Z,19.26
2022-10-05T01:01:40.685Z,19.25
2022-10-05T01:01:50.637Z,19.25
2022-10-05T01:02:00.647Z,19.25
2022-10-05T01:02:10.646Z,19.24
2022-10-05T01:02:20.647Z,19.24
2022-10-05T01:02:35.816Z,19.24
2022-10-05T01:02:41.662Z,19.23
2022-10-05T01:02:50.695Z,19.21
2022-10-05T01:03:00.594Z,19.22
2022-10-05T01:03:10.594Z,19.23
2022-10-05T01:03:20.594Z,19.24
2022-10-05T01:03:30.592Z,19.23
2022-10-05T01:03:40.594Z,19.23
2022-10-05T01:03:50.706Z,19.22
2022-10-05T01:04:00.595Z,19.22
2022-10-05T01:04:10.596Z,19.24
2022-10-05T01:04:20.628Z,19.22
2022-10-05T01:04:30.603Z,19.20
2022-10-05T01:04:40.597Z,19.23
2022-10-05T01:04:50.602Z,19.22
2022-10-05T01:05:00.602Z,19.22
2022-10-05T01:05:10.602Z,19.22
2022-10-05T01:05:20.602Z,19.21
2022-10-05T01:05:30.604Z,19.22
2022-10-05T01:05:40.613Z,19.20
2022-10-05T01:05:50.606Z,19.21
2022-10-05T01:06:00.603Z,19.20
2022-10-05T01:06:10.603Z,19.21
2022-10-05T01:06:20.607Z,19.22
2022-10-05T01:06:30.612Z,19.22
2022-10-05T01:06:40.609Z,19.21
2022-10-05T01:06:50.606Z,19.20
2022-10-05T01:07:00.604Z,19.23
2022-10-05T01:07:10.608Z,19.21
2022-10-05T01:07:20.609Z,19.23
2022-10-05T01:07:30.611Z,19.21
2022-10-05T01:07:40.612Z,19.24
2022-10-05T01:07:50.607Z,19.22
2022-10-05T01:08:00.607Z,19.22
2022-10-05T01:08:10.610Z,19.22
2022-10-05T01:08:20.607Z,19.23
2022-10-05T01:08:30.647Z,19.22
2022-10-05T01:08:40.616Z,19.23
2022-10-05T01:08:50.609Z,19.22
2022-10-05T01:09:00.610Z,19.23
2022-10-05T01:09:10.615Z,19.23
2022-10-05T01:09:20.610Z,19.22
2022-10-05T01:09:30.610Z,19.22
2022-10-05T01:09:40.618Z,19.23
2022-10-05T01:09:50.610Z,19.22
2022-10-05T01:10:00.612Z,19.22
2022-10-05T01:10:10.617Z,19.21
2022-10-05T01:10:20.615Z,19.21
2022-10-05T01:10:30.613Z,19.20
2022-10-05T01:10:40.618Z,19.20
2022-10-05T01:10:50.616Z,19.22
2022-10-05T01:11:00.627Z,19.22
2022-10-05T01:11:10.619Z,19.21
2022-10-05T01:11:20.618Z,19.20
2022-10-05T01:11:30.621Z,19.20
2022-10-05T01:11:40.625Z,19.20
2022-10-05T01:11:50.625Z,19.21
2022-10-05T01:12:00.629Z,19.21
2022-10-05T01:12:10.623Z,19.19
2022-10-05T01:12:20.626Z,19.21
2022-10-05T01:12:30.630Z,19.20
2022-10-05T01:12:40.662Z,19.20
2022-10-05T01:12:50.629Z,19.19
2022-10-05T01:13:00.645Z,19.19
2022-10-05T01:13:10.611Z,19.20
2022-10-05T01:13:20.625Z,19.19
2022-10-05T01:13:30.617Z,19.20
2022-10-05T01:13:40.613Z,19.20
2022-10-05T01:13:50.633Z,19.21
2022-10-05T01:14:00.629Z,19.19
2022-10-05T01:14:10.614Z,19.21
2022-10-05T01:14:20.620Z,19.20
2022-10-05T01:14:30.632Z,19.20
2022-10-05T01:14:40.621Z,19.20
2022-10-05T01:14:50.635Z,19.21
2022-10-05T01:15:00.633Z,19.22
2022-10-05T01:15:10.639Z,19.22
2022-10-05T01:15:20.636Z,19.20
2022-10-05T01:15:30.622Z,19.20
2022-10-05T01:15:40.643Z,19.20
2022-10-05T01:15:50.640Z,19.21
2022-10-05T01:16:00.700Z,19.21
2022-10-05T01:16:10.748Z,19.22
2022-10-05T01:16:20.697Z,19.21
2022-10-05T01:16:30.683Z,19.22
2022-10-05T01:16:40.707Z,19.21
2022-10-05T01:16:51.162Z,19.20
2022-10-05T01:17:00.694Z,19.20
2022-10-05T01:17:10.649Z,19.21
2022-10-05T01:17:20.646Z,19.19
2022-10-05T01:17:30.629Z,19.21
2022-10-05T01:17:40.647Z,19.21
2022-10-05T01:17:50.644Z,19.19
2022-10-05T01:18:00.646Z,19.21
2022-10-05T01:18:10.647Z,19.20
2022-10-05T01:18:20.650Z,19.20
2022-10-05T01:18:30.648Z,19.19
2022-10-05T01:18:40.651Z,19.19
2022-10-05T01:18:50.649Z,19.20
2022-10-05T01:19:00.657Z,19.21
2022-10-05T01:19:10.657Z,19.21
2022-10-05T01:19:20.653Z,19.21
2022-10-05T01:19:30.655Z,19.20
2022-10-05T01:19:40.656Z,19.19
2022-10-05T01:19:50.653Z,19.21
2022-10-05T01:20:00.653Z,19.21
2022-10-05T01:20:10.653Z,19.18
2022-10-05T01:20:20.654Z,19.20
2022-10-05T01:20:30.657Z,19.20
2022-10-05T01:20:40.671Z,19.22
2022-10-05T01:20:50.656Z,19.21
2022-10-05T01:21:00.649Z,19.21
2022-10-05T01:21:10.662Z,19.20
2022-10-05T01:21:20.667Z,19.21
2022-10-05T01:21:30.662Z,19.21
2022-10-05T01:21:40.664Z,19.21
2022-10-05T01:21:50.660Z,19.20
2022-10-05T01:22:00.662Z,19.21
2022-10-05T01:22:10.662Z,19.20
2022-10-05T01:22:20.661Z,19.20
2022-10-05T01:22:30.663Z,19.21
2022-10-05T01:22:40.668Z,19.22
2022-10-05T01:22:50.667Z,19.20
2022-10-05T01:23:00.669Z,19.22
2022-10-05T01:23:10.663Z,19.22
2022-10-05T01:23:20.665Z,19.23
2022-10-05T01:23:30.670Z,19.21
2022-10-05T01:23:40.673Z,19.20
2022-10-05T01:23:50.671Z,19.22
2022-10-05T01:24:00.669Z,19.22
2022-10-05T01:24:10.668Z,19.22
2022-10-05T01:24:20.672Z,19.22
2022-10-05T01:24:30.685Z,19.22
2022-10-05T01:24:40.669Z,19.22
2022-10-05T01:24:50.671Z,19.21
2022-10-05T01:25:00.700Z,19.22
2022-10-05T01:25:10.675Z,19.23
2022-10-05T01:25:20.657Z,19.21
2022-10-05T01:25:30.673Z,19.22
2022-10-05T01:25:40.749Z,19.21
2022-10-05T01:25:50.674Z,19.22
2022-10-05T01:26:00.677Z,19.21
2022-10-05T01:26:10.685Z,19.20
2022-10-05T01:26:20.682Z,19.21
2022-10-05T01:26:30.675Z,19.22
2022-10-05T01:26:40.683Z,19.21
2022-10-05T01:26:50.660Z,19.22
2022-10-05T01:27:00.678Z,19.21
2022-10-05T01:27:10.678Z,19.21
2022-10-05T01:27:20.677Z,19.21
2022-10-05T01:27:30.680Z,19.22
2022-10-05T01:27:40.682Z,19.22
2022-10-05T01:27:50.678Z,19.20
2022-10-05T01:28:00.745Z,19.21
2022-10-05T01:28:10.724Z,19.21
2022-10-05T01:28:20.727Z,19.22
2022-10-05T01:28:30.786Z,19.20
2022-10-05T01:28:40.685Z,19.21
2022-10-05T01:28:50.687Z,19.19
2022-10-05T01:29:00.702Z,19.22
2022-10-05T01:29:10.694Z,19.21
2022-10-05T01:29:20.687Z,19.21
2022-10-05T01:29:30.689Z,19.21
2022-10-05T01:29:40.675Z,19.22
2022-10-05T01:29:50.689Z,19.23
2022-10-05T01:30:00.693Z,19.21
2022-10-05T01:30:10.697Z,19.21
2022-10-05T01:30:20.695Z,19.23
2022-10-05T01:30:30.698Z,19.22
2022-10-05T01:30:40.700Z,19.22
2022-10-05T01:30:50.695Z,19.22
2022-10-05T01:31:00.698Z,19.21
2022-10-05T01:31:10.776Z,19.21
2022-10-05T01:31:20.795Z,19.21
2022-10-05T01:31:30.732Z,19.20
2022-10-05T01:31:40.712Z,19.21
2022-10-05T01:31:50.784Z,19.21
2022-10-05T01:32:00.702Z,19.23
2022-10-05T01:32:10.704Z,19.21
2022-10-05T01:32:20.702Z,19.22
2022-10-05T01:32:30.703Z,19.23
2022-10-05T01:32:40.703Z,19.23
2022-10-05T01:32:50.700Z,19.23
2022-10-05T01:33:00.705Z,19.21
2022-10-05T01:33:10.707Z,19.22
2022-10-05T01:33:20.705Z,19.21
2022-10-05T01:33:30.706Z,19.21
2022-10-05T01:33:40.704Z,19.23
2022-10-05T01:33:50.705Z,19.22
2022-10-05T01:34:00.706Z,19.22
2022-10-05T01:34:11.737Z,19.21
2022-10-05T01:34:20.708Z,19.22
2022-10-05T01:34:30.709Z,19.21
2022-10-05T01:34:40.709Z,19.22
2022-10-05T01:34:50.710Z,19.21
2022-10-05T01:35:00.709Z,19.21
2022-10-05T01:35:10.710Z,19.19
2022-10-05T01:35:20.711Z,19.21
2022-10-05T01:35:30.719Z,19.23
2022-10-05T01:35:40.700Z,19.22
2022-10-05T01:35:50.717Z,19.22
2022-10-05T01:36:00.710Z,19.22
2022-10-05T01:36:10.722Z,19.23
2022-10-05T01:36:20.720Z,19.22
2022-10-05T01:36:30.717Z,19.22
2022-10-05T01:36:40.717Z,19.22
2022-10-05T01:36:50.716Z,19.23
2022-10-05T01:37:00.718Z,19.22
2022-10-05T01:37:10.720Z,19.22
2022-10-05T01:37:20.719Z,19.22
2022-10-05T01:37:30.721Z,19.22
2022-10-05T01:37:40.707Z,19.22
2022-10-05T01:37:50.704Z,19.21
2022-10-05T01:38:00.721Z,19.24
2022-10-05T01:38:10.723Z,19.23
2022-10-05T01:38:20.720Z,19.21
2022-10-05T01:38:30.722Z,19.21
2022-10-05T01:38:40.728Z,19.23
2022-10-05T01:38:50.727Z,19.22
2022-10-05T01:39:00.724Z,19.23
2022-10-05T01:39:10.739Z,19.22
2022-10-05T01:39:20.724Z,19.22
2022-10-05T01:39:30.725Z,19.22
2022-10-05T01:39:40.730Z,19.21
2022-10-05T01:39:50.726Z,19.22
2022-10-05T01:40:00.728Z,19.21
2022-10-05T01:40:10.729Z,19.22
2022-10-05T01:40:20.728Z,19.21
2022-10-05T01:40:30.731Z,19.21
2022-10-05T01:40:40.735Z,19.21
2022-10-05T01:40:50.762Z,19.21
2022-10-05T01:41:00.731Z,19.21
2022-10-05T01:41:10.730Z,19.22
2022-10-05T01:41:20.734Z,19.21
2022-10-05T01:41:30.742Z,19.21
2022-10-05T01:41:40.734Z,19.21
2022-10-05T01:41:50.734Z,19.22
2022-10-05T01:42:00.736Z,19.22
2022-10-05T01:42:10.738Z,19.21
2022-10-05T01:42:20.740Z,19.21
2022-10-05T01:42:30.733Z,19.23
2022-10-05T01:42:40.734Z,19.22
2022-10-05T01:42:50.738Z,19.23
2022-10-05T01:43:00.735Z,19.22
2022-10-05T01:43:10.736Z,19.23
2022-10-05T01:43:20.737Z,19.22
2022-10-05T01:43:30.738Z,19.21
2022-10-05T01:43:40.738Z,19.22
2022-10-05T01:43:50.744Z,19.22
2022-10-05T01:44:00.740Z,19.21
2022-10-05T01:44:10.741Z,19.23
2022-10-05T01:44:20.750Z,19.22
2022-10-05T01:44:30.740Z,19.21
2022-10-05T01:44:40.745Z,19.22
2022-10-05T01:44:50.748Z,19.21
2022-10-05T01:45:00.746Z,19.20
2022-10-05T01:45:10.742Z,19.23
2022-10-05T01:45:20.745Z,19.22
2022-10-05T01:45:30.791Z,19.23
2022-10-05T01:45:40.776Z,19.23
2022-10-05T01:45:50.822Z,19.22
2022-10-05T01:46:00.824Z,19.21
2022-10-05T01:46:10.832Z,19.23
2022-10-05T01:46:20.876Z,19.22
2022-10-05T01:46:30.750Z,19.22
2022-10-05T01:46:40.755Z,19.21
2022-10-05T01:46:50.754Z,19.21
2022-10-05T01:47:00.756Z,19.22
2022-10-05T01:47:10.756Z,19.23
2022-10-05T01:47:20.757Z,19.21
2022-10-05T01:47:30.755Z,19.22
2022-10-05T01:47:40.757Z,19.22
2022-10-05T01:47:50.758Z,19.22
2022-10-05T01:48:00.757Z,19.21
2022-10-05T01:48:10.763Z,19.23
2022-10-05T01:48:20.757Z,19.21
2022-10-05T01:48:30.761Z,19.22
2022-10-05T01:48:40.761Z,19.21
2022-10-05T01:48:50.779Z,19.21
2022-10-05T01:49:00.766Z,19.22
2022-10-05T01:49:10.759Z,19.22
2022-10-05T01:49:20.780Z,19.21
2022-10-05T01:49:30.766Z,19.22
2022-10-05T01:49:40.764Z,19.22
2022-10-05T01:49:50.763Z,19.22
2022-10-05T01:50:00.764Z,19.23
2022-10-05T01:50:10.768Z,19.23
2022-10-05T01:50:20.764Z,19.22
2022-10-05T01:50:30.770Z,19.23
2022-10-05T01:50:40.772Z,19.22
2022-10-05T01:50:50.768Z,19.22
2022-10-05T01:51:00.770Z,19.21
2022-10-05T01:51:10.781Z,19.22
2022-10-05T01:51:20.771Z,19.22
2022-10-05T01:51:30.772Z,19.22
2022-10-05T01:51:40.770Z,19.22
2022-10-05T01:51:50.777Z,19.22
2022-10-05T01:52:00.776Z,19.21
2022-10-05T01:52:10.779Z,19.21
2022-10-05T01:52:20.779Z,19.20
2022-10-05T01:52:30.760Z,19.22
2022-10-05T01:52:40.789Z,19.21
2022-10-05T01:52:50.792Z,19.23
2022-10-05T01:53:00.779Z,19.20
2022-10-05T01:53:10.778Z,19.19
2022-10-05T01:53:20.777Z,19.22
2022-10-05T01:53:30.782Z,19.21
2022-10-05T01:53:40.780Z,19.20
2022-10-05T01:53:50.783Z,19.22
2022-10-05T01:54:00.779Z,19.22
2022-10-05T01:54:10.779Z,19.20
2022-10-05T01:54:20.784Z,19.20
2022-10-05T01:54:30.784Z,19.20
2022-10-05T01:54:40.778Z,19.21
2022-10-05T01:54:50.790Z,19.19
2022-10-05T01:55:00.782Z,19.20
2022-10-05T01:55:10.792Z,19.19
2022-10-05T01:55:20.787Z,19.19
2022-10-05T01:55:30.787Z,19.20
2022-10-05T01:55:40.799Z,19.20
2022-10-05T01:55:50.787Z,19.19
2022-10-05T01:56:00.791Z,19.19
2022-10-05T01:56:10.773Z,19.19
2022-10-05T01:56:20.790Z,19.19
2022-10-05T01:56:30.797Z,19.19
2022-10-05T01:56:40.790Z,19.20
2022-10-05T01:56:50.791Z,19.20
2022-10-05T01:57:00.791Z,19.20
2022-10-05T01:57:10.793Z,19.20
2022-10-05T01:57:20.799Z,19.21
2022-10-05T01:57:30.792Z,19.20
2022-10-05T01:57:40.794Z,19.20
2022-10-05T01:57:50.798Z,19.20
2022-10-05T01:58:00.806Z,19.20
2022-10-05T01:58:10.838Z,19.21
2022-10-05T01:58:20.799Z,19.20
2022-10-05T01:58:30.800Z,19.19
2022-10-05T01:58:40.799Z,19.21
2022-10-05T01:58:50.799Z,19.21
2022-10-05T01:59:00.802Z,19.20
2022-10-05T01:59:10.799Z,19.22
2022-10-05T01:59:20.803Z,19.20
2022-10-05T01:59:30.802Z,19.20
2022-10-05T01:59:40.807Z,19.20
2022-10-05T01:59:50.802Z,19.21
2022-10-05T02:00:00.805Z,19.21
2022-10-05T02:00:10.805Z,19.20
2022-10-05T02:00:20.812Z,19.21
2022-10-05T02:00:30.807Z,19.20
2022-10-05T02:00:40.847Z,19.19
2022-10-05T02:00:50.881Z,19.22
2022-10-05T02:01:00.911Z,19.20
2022-10-05T02:01:10.871Z,19.20
2022-10-05T02:01:20.876Z,19.21
2022-10-05T02:01:30.864Z,19.20
2022-10-05T02:01:40.814Z,19.21
2022-10-05T02:01:50.827Z,19.21
2022-10-05T02:02:00.865Z,19.20
2022-10-05T02:02:10.866Z,19.21
2022-10-05T02:02:20.904Z,19.20
2022-10-05T02:02:30.835Z,19.21
2022-10-05T02:02:40.901Z,19.21
2022-10-05T02:02:50.828Z,19.22
2022-10-05T02:03:00.821Z,19.21
2022-10-05T02:03:10.816Z,19.22
2022-10-05T02:03:20.816Z,19.22
2022-10-05T02:03:30.820Z,19.22
2022-10-05T02:03:40.819Z,19.22
2022-10-05T02:03:50.819Z,19.22
2022-10-05T02:04:00.822Z,19.21
2022-10-05T02:04:10.819Z,19.21
2022-10-05T02:04:42.734Z,19.20
2022-10-05T02:05:00.255Z,19.19
2022-10-05T02:05:01.474Z,19.16
2022-10-05T02:05:02.992Z,19.12
2022-10-05T02:05:06.981Z,19.15
2022-10-05T02:05:10.825Z,19.13
2022-10-05T02:05:20.827Z,19.12
2022-10-05T02:05:30.828Z,19.15
2022-10-05T02:05:40.832Z,19.14
2022-10-05T02:05:50.839Z,19.16
2022-10-05T02:06:00.826Z,19.17
2022-10-05T02:06:10.830Z,19.17
2022-10-05T02:06:20.827Z,19.18
2022-10-05T02:06:30.815Z,19.17
2022-10-05T02:06:40.838Z,19.16
2022-10-05T02:06:50.830Z,19.17
2022-10-05T02:07:00.818Z,19.16
2022-10-05T02:07:10.833Z,19.16
2022-10-05T02:07:20.836Z,19.17
2022-10-05T02:07:30.837Z,19.18
2022-10-05T02:07:40.834Z,19.17
2022-10-05T02:07:50.842Z,19.19
2022-10-05T02:08:00.837Z,19.19
2022-10-05T02:08:10.837Z,19.19
2022-10-05T02:08:20.838Z,19.20
2022-10-05T02:08:30.837Z,19.19
2022-10-05T02:08:40.872Z,19.19